createdAt,value
2022-08-30T00:01:48.736Z,23.48
2022-08-30T00:04:15.112Z,23.02
2022-08-30T00:06:41.565Z,22.92
2022-08-30T00:09:07.997Z,22.66
2022-08-30T00:11:34.385Z,22.74
2022-08-30T00:14:00.776Z,22.74
2022-08-30T00:16:27.236Z,22.90
2022-08-30T00:18:53.630Z,22.86
2022-08-30T00:21:20.660Z,22.86
2022-08-30T00:23:47.095Z,22.82
2022-08-30T00:26:13.473Z,22.99
2022-08-30T00:28:39.841Z,22.82
2022-08-30T00:31:06.361Z,22.73
2022-08-30T00:33:32.780Z,24.29
2022-08-30T00:35:59.294Z,24.02
2022-08-30T00:38:25.788Z,23.25
2022-08-30T00:40:52.167Z,22.91
2022-08-30T00:43:19.321Z,22.78
2022-08-30T00:45:45.998Z,22.70
2022-08-30T00:48:12.387Z,22.70
2022-08-30T00:50:38.836Z,22.77
2022-08-30T00:53:05.449Z,22.71
2022-08-30T00:55:31.833Z,22.85
2022-08-30T00:57:58.219Z,22.85
2022-08-30T01:00:24.748Z,22.94
2022-08-30T01:02:51.161Z,23.08
2022-08-30T01:05:19.166Z,23.10
2022-08-30T01:07:45.729Z,23.37
2022-08-30T01:10:12.119Z,24.76
2022-08-30T01:12:38.527Z,23.80
2022-08-30T01:15:05.087Z,23.35
2022-08-30T01:17:31.871Z,23.28
2022-08-30T01:19:58.857Z,23.24
2022-08-30T01:22:25.311Z,23.29
2022-08-30T01:24:51.715Z,23.47
2022-08-30T01:27:18.098Z,23.49
2022-08-30T01:29:44.548Z,23.55
2022-08-30T01:32:10.935Z,23.52
2022-08-30T01:34:37.316Z,23.67
2022-08-30T01:37:06.860Z,23.62
2022-08-30T01:39:33.249Z,23.52
2022-08-30T01:41:59.837Z,24.00
2022-08-30T01:44:26.476Z,25.32
2022-08-30T01:46:52.880Z,24.06
2022-08-30T01:49:27.366Z,23.73
2022-08-30T01:52:00.907Z,23.59
2022-08-30T01:54:27.874Z,23.63
2022-08-30T01:57:03.504Z,23.59
2022-08-30T01:59:29.881Z,23.53
2022-08-30T02:01:56.248Z,23.80
2022-08-30T02:04:22.676Z,23.74
2022-08-30T02:06:49.053Z,23.81
2022-08-30T02:09:15.473Z,23.88
2022-08-30T02:11:41.952Z,23.79
2022-08-30T02:14:08.358Z,23.71
2022-08-30T02:16:34.787Z,25.75
2022-08-30T02:19:04.423Z,24.74
2022-08-30T02:21:30.823Z,24.16
2022-08-30T02:23:57.546Z,23.74
2022-08-30T02:26:24.091Z,23.84
2022-08-30T02:28:50.671Z,23.83
2022-08-30T02:31:17.093Z,23.89
2022-08-30T02:33:45.925Z,23.96
2022-08-30T02:36:12.300Z,23.99
2022-08-30T02:38:38.712Z,24.04
2022-08-30T02:41:05.457Z,24.01
2022-08-30T02:43:31.873Z,24.10
2022-08-30T02:45:58.338Z,24.10
2022-08-30T02:48:24.911Z,24.87
2022-08-30T02:50:51.309Z,25.51
2022-08-30T02:53:18.010Z,24.44
2022-08-30T02:55:44.595Z,24.08
2022-08-30T02:58:10.978Z,23.98
2022-08-30T03:00:37.351Z,23.85
2022-08-30T03:03:03.790Z,23.96
2022-08-30T03:05:30.169Z,24.00
2022-08-30T03:07:56.738Z,23.93
2022-08-30T03:10:23.198Z,23.89
2022-08-30T03:12:49.605Z,23.94
2022-08-30T03:15:16.004Z,24.06
2022-08-30T03:17:42.493Z,23.98
2022-08-30T03:20:08.890Z,24.29
2022-08-30T03:22:35.287Z,25.73
2022-08-30T03:25:01.816Z,24.62
2022-08-30T03:27:28.236Z,24.15
2022-08-30T03:29:54.697Z,24.05
2022-08-30T03:32:21.308Z,23.91
2022-08-30T03:34:49.225Z,23.89
2022-08-30T03:37:15.674Z,23.93
2022-08-30T03:39:42.122Z,24.02
2022-08-30T03:42:08.524Z,24.01
2022-08-30T03:44:35.383Z,23.95
2022-08-30T03:47:02.913Z,24.13
2022-08-30T03:49:29.509Z,24.12
2022-08-30T03:51:55.898Z,24.13
2022-08-30T03:54:24.679Z,25.82
2022-08-30T03:56:51.293Z,24.65
2022-08-30T03:59:17.693Z,24.09
2022-08-30T04:01:44.144Z,24.05
2022-08-30T04:04:10.568Z,23.81
2022-08-30T04:06:36.968Z,23.92
2022-08-30T04:09:03.404Z,23.69
2022-08-30T04:11:29.802Z,23.89
2022-08-30T04:13:56.185Z,23.84
2022-08-30T04:16:22.695Z,24.03
2022-08-30T04:18:49.173Z,23.94
2022-08-30T04:21:15.636Z,23.94
2022-08-30T04:23:42.207Z,25.21
2022-08-30T04:26:08.600Z,25.14
2022-08-30T04:28:34.986Z,24.20
2022-08-30T04:31:01.438Z,23.81
2022-08-30T04:33:27.825Z,23.76
2022-08-30T04:35:54.259Z,23.59
2022-08-30T04:38:22.629Z,23.51
2022-08-30T04:40:49.844Z,23.57
2022-08-30T04:43:16.356Z,23.55
2022-08-30T04:45:43.023Z,23.68
2022-08-30T04:48:09.476Z,23.51
2022-08-30T04:50:35.913Z,23.47
2022-08-30T04:53:02.384Z,23.40
2022-08-30T04:55:28.774Z,25.35
2022-08-30T04:57:55.245Z,24.32
2022-08-30T05:00:21.687Z,23.50
2022-08-30T05:02:48.144Z,23.37
2022-08-30T05:05:14.555Z,23.41
2022-08-30T05:07:41.038Z,23.21
2022-08-30T05:10:11.152Z,23.48
2022-08-30T05:12:38.048Z,23.47
2022-08-30T05:15:04.464Z,23.40
2022-08-30T05:17:30.848Z,23.53
2022-08-30T05:19:57.251Z,23.48
2022-08-30T05:22:23.850Z,23.56
2022-08-30T05:24:50.365Z,24.10
2022-08-30T05:27:16.732Z,25.03
2022-08-30T05:29:43.177Z,24.00
2022-08-30T05:32:09.561Z,23.54
2022-08-30T05:34:35.994Z,23.33
2022-08-30T05:37:02.445Z,23.20
2022-08-30T05:39:28.979Z,23.37
2022-08-30T05:42:16.863Z,23.40
2022-08-30T05:44:44.393Z,23.32
2022-08-30T05:47:10.866Z,23.38
2022-08-30T05:49:37.306Z,23.40
2022-08-30T05:52:03.703Z,23.75
2022-08-30T05:54:31.598Z,23.31
2022-08-30T05:56:58.016Z,25.42
2022-08-30T05:59:24.417Z,24.34
2022-08-30T06:01:50.864Z,24.10
2022-08-30T06:04:17.431Z,23.94
2022-08-30T06:06:43.819Z,23.95
2022-08-30T06:09:10.210Z,24.13
2022-08-30T06:11:36.735Z,24.03
2022-08-30T06:14:03.185Z,24.44
2022-08-30T06:16:29.659Z,24.40
2022-08-30T06:18:56.167Z,24.37
2022-08-30T06:21:22.553Z,24.36
2022-08-30T06:23:48.953Z,23.91
2022-08-30T06:26:15.409Z,25.86
2022-08-30T06:28:41.816Z,24.91
2022-08-30T06:31:08.331Z,24.28
2022-08-30T06:33:35.033Z,24.32
2022-08-30T06:36:05.778Z,24.13
2022-08-30T06:38:32.456Z,24.24
2022-08-30T06:40:58.902Z,24.51
2022-08-30T06:43:25.331Z,24.54
2022-08-30T06:45:51.739Z,24.62
2022-08-30T06:48:19.497Z,24.47
2022-08-30T06:50:49.455Z,24.63
2022-08-30T06:53:16.482Z,25.48
2022-08-30T06:55:44.199Z,25.96
2022-08-30T06:58:10.703Z,24.87
2022-08-30T07:00:38.230Z,24.45
2022-08-30T07:03:04.794Z,24.41
2022-08-30T07:05:31.289Z,24.55
2022-08-30T07:07:57.990Z,24.65
2022-08-30T07:10:24.600Z,24.87
2022-08-30T07:12:51.051Z,24.71
2022-08-30T07:15:17.465Z,24.92
2022-08-30T07:17:45.002Z,24.59
2022-08-30T07:20:11.739Z,24.21
2022-08-30T07:22:38.126Z,25.86
2022-08-30T07:25:04.658Z,25.36
2022-08-30T07:27:31.073Z,24.51
2022-08-30T07:29:57.466Z,23.87
2022-08-30T07:32:23.926Z,23.69
2022-08-30T07:34:51.717Z,23.85
2022-08-30T07:37:18.355Z,23.79
2022-08-30T07:39:47.821Z,24.08
2022-08-30T07:42:14.752Z,24.22
2022-08-30T07:44:41.192Z,24.05
2022-08-30T07:47:07.725Z,24.53
2022-08-30T07:49:34.176Z,24.45
2022-08-30T07:52:00.569Z,26.45
2022-08-30T07:54:27.249Z,25.73
2022-08-30T07:56:53.634Z,24.98
2022-08-30T07:59:20.054Z,25.21
2022-08-30T08:01:46.646Z,25.23
2022-08-30T08:04:13.131Z,25.45
2022-08-30T08:06:44.503Z,25.16
2022-08-30T08:09:10.996Z,25.25
2022-08-30T08:11:37.411Z,24.97
2022-08-30T08:14:03.980Z,25.00
2022-08-30T08:16:30.468Z,25.12
2022-08-30T08:18:57.031Z,26.05
2022-08-30T08:21:23.443Z,26.52
2022-08-30T08:23:50.057Z,25.48
2022-08-30T08:26:16.467Z,25.53
2022-08-30T08:28:42.876Z,25.76
2022-08-30T08:31:09.388Z,25.61
2022-08-30T08:33:35.845Z,25.18
2022-08-30T08:36:06.221Z,25.43
2022-08-30T08:38:35.678Z,25.37
2022-08-30T08:41:04.250Z,25.26
2022-08-30T08:43:30.654Z,25.45
2022-08-30T08:45:57.155Z,24.94
2022-08-30T08:48:24.719Z,26.55
2022-08-30T08:50:58.407Z,25.56
2022-08-30T08:53:45.875Z,25.20
2022-08-30T08:56:12.803Z,25.15
2022-08-30T08:58:39.249Z,25.26
2022-08-30T09:01:05.659Z,25.11
2022-08-30T09:03:32.170Z,25.18
2022-08-30T09:05:58.724Z,25.58
2022-08-30T09:08:25.182Z,25.74
2022-08-30T09:10:51.840Z,25.51
2022-08-30T09:13:19.129Z,25.70
2022-08-30T09:15:46.871Z,25.91
2022-08-30T09:18:19.270Z,27.70
2022-08-30T09:20:46.473Z,26.78
2022-08-30T09:23:12.888Z,26.02
2022-08-30T09:25:41.874Z,25.55
2022-08-30T09:28:08.505Z,25.50
2022-08-30T09:30:38.632Z,25.75
2022-08-30T09:33:05.249Z,25.39
2022-08-30T09:35:32.125Z,25.47
2022-08-30T09:37:58.519Z,25.37
2022-08-30T09:40:25.128Z,25.62
2022-08-30T09:42:51.591Z,25.65
2022-08-30T09:45:18.087Z,25.92
2022-08-30T09:47:44.479Z,27.16
2022-08-30T09:50:10.996Z,25.90
2022-08-30T09:52:37.613Z,25.34
2022-08-30T09:55:04.122Z,25.66
2022-08-30T09:57:34.032Z,25.81
2022-08-30T10:00:00.723Z,25.75
2022-08-30T10:02:28.433Z,25.89
2022-08-30T10:04:56.660Z,26.05
2022-08-30T10:07:23.144Z,25.98
2022-08-30T10:09:55.835Z,26.17
2022-08-30T10:12:22.523Z,26.05
2022-08-30T10:14:48.924Z,27.61
2022-08-30T10:17:15.409Z,27.33
2022-08-30T10:19:42.920Z,26.12
2022-08-30T10:22:09.309Z,25.90
2022-08-30T10:24:35.918Z,25.95
2022-08-30T10:27:02.806Z,26.00
2022-08-30T10:29:31.630Z,25.90
2022-08-30T10:31:58.021Z,26.21
2022-08-30T10:34:24.491Z,26.33
2022-08-30T10:36:51.031Z,26.50
2022-08-30T10:39:17.731Z,26.82
2022-08-30T10:41:44.981Z,27.19
2022-08-30T10:44:11.408Z,28.98
2022-08-30T10:46:37.827Z,29.15
2022-08-30T10:49:04.270Z,28.09
2022-08-30T10:51:31.836Z,28.19
2022-08-30T10:53:58.234Z,28.08
2022-08-30T10:56:24.680Z,28.29
2022-08-30T10:58:52.179Z,28.23
2022-08-30T11:01:19.312Z,28.14
2022-08-30T11:03:50.271Z,28.35
2022-08-30T11:06:16.681Z,28.41
2022-08-30T11:08:43.067Z,28.53
2022-08-30T11:11:13.036Z,28.30
2022-08-30T11:13:39.614Z,28.96
2022-08-30T11:16:06.031Z,30.05
2022-08-30T11:18:32.543Z,28.99
2022-08-30T11:20:59.167Z,28.19
2022-08-30T11:23:25.612Z,28.06
2022-08-30T11:25:56.794Z,27.78
2022-08-30T11:28:24.184Z,27.90
2022-08-30T11:30:53.354Z,27.72
2022-08-30T11:33:19.847Z,27.96
2022-08-30T11:35:48.641Z,28.06
2022-08-30T11:38:15.350Z,27.77
2022-08-30T11:40:41.899Z,27.82
2022-08-30T11:43:10.726Z,27.83
2022-08-30T11:45:37.280Z,29.54
2022-08-30T11:48:04.404Z,28.53
2022-08-30T11:50:31.225Z,27.95
2022-08-30T11:52:57.837Z,27.86
2022-08-30T11:55:25.210Z,27.78
2022-08-30T11:57:52.005Z,27.46
2022-08-30T12:00:20.398Z,27.73
2022-08-30T12:02:46.921Z,27.67
2022-08-30T12:05:13.565Z,27.61
2022-08-30T12:07:40.058Z,27.82
2022-08-30T12:10:08.453Z,27.60
2022-08-30T12:12:35.961Z,27.78
2022-08-30T12:15:03.114Z,29.60
2022-08-30T12:17:30.080Z,28.24
2022-08-30T12:19:56.483Z,27.83
2022-08-30T12:22:22.946Z,27.78
2022-08-30T12:24:49.376Z,27.76
2022-08-30T12:27:16.608Z,27.70
2022-08-30T12:29:43.067Z,27.96
2022-08-30T12:32:09.541Z,27.71
2022-08-30T12:34:36.256Z,27.65
2022-08-30T12:37:02.755Z,27.63
2022-08-30T12:39:30.866Z,27.94
2022-08-30T12:41:57.255Z,27.54
2022-08-30T12:44:23.925Z,29.41
2022-08-30T12:46:50.668Z,28.36
2022-08-30T12:49:17.328Z,27.52
2022-08-30T12:51:43.817Z,27.05
2022-08-30T12:54:10.217Z,27.25
2022-08-30T12:56:49.540Z,27.99
2022-08-30T12:59:16.765Z,28.32
2022-08-30T13:01:45.093Z,27.59
2022-08-30T13:04:14.374Z,27.24
2022-08-30T13:06:40.977Z,27.56
2022-08-30T13:09:07.390Z,27.55
2022-08-30T13:11:33.811Z,27.80
2022-08-30T13:14:00.306Z,29.52
2022-08-30T13:16:26.725Z,28.43
2022-08-30T13:18:56.137Z,27.22
2022-08-30T13:21:22.636Z,26.80
2022-08-30T13:23:49.062Z,26.90
2022-08-30T13:26:23.074Z,26.66
2022-08-30T13:28:49.909Z,26.98
2022-08-30T13:31:16.394Z,27.05
2022-08-30T13:33:42.813Z,27.29
2022-08-30T13:36:09.472Z,27.84
2022-08-30T13:38:35.928Z,28.33
2022-08-30T13:41:02.689Z,27.99
2022-08-30T13:43:29.159Z,30.52
2022-08-30T13:46:15.690Z,29.12
2022-08-30T13:48:42.275Z,28.29
2022-08-30T13:51:08.838Z,27.94
2022-08-30T13:56:21.745Z,27.54
2022-08-30T13:58:48.179Z,27.47
2022-08-30T14:01:14.602Z,27.29
2022-08-30T14:04:13.294Z,27.27
2022-08-30T14:06:34.071Z,26.97
2022-08-30T14:09:03.881Z,26.83
2022-08-30T14:11:31.001Z,26.69
2022-08-30T14:14:17.220Z,28.45
2022-08-30T14:16:46.632Z,27.30
2022-08-30T14:19:13.144Z,26.64
2022-08-30T14:21:39.570Z,26.48
2022-08-30T14:24:06.035Z,26.60
2022-08-30T14:26:35.741Z,26.21
2022-08-30T14:29:02.239Z,26.51
2022-08-30T14:31:28.752Z,26.28
2022-08-30T14:33:55.333Z,25.80
2022-08-30T14:36:21.728Z,25.49
2022-08-30T14:38:49.110Z,25.41
2022-08-30T14:41:16.281Z,25.48
2022-08-30T14:43:42.669Z,27.37
2022-08-30T14:46:10.155Z,26.57
2022-08-30T14:48:36.765Z,26.00
2022-08-30T14:51:03.257Z,25.96
2022-08-30T14:53:29.899Z,25.65
2022-08-30T14:55:56.321Z,25.67
2022-08-30T14:58:22.710Z,25.72
2022-08-30T15:00:49.713Z,25.87
2022-08-30T15:03:16.156Z,26.20
2022-08-30T15:05:42.746Z,26.29
2022-08-30T15:08:10.157Z,26.21
2022-08-30T15:10:37.125Z,26.34
2022-08-30T15:13:04.976Z,27.51
2022-08-30T15:15:31.706Z,27.40
2022-08-30T15:17:58.090Z,26.34
2022-08-30T15:20:24.490Z,26.20
2022-08-30T15:22:50.929Z,25.97
2022-08-30T15:25:18.860Z,25.89
2022-08-30T15:27:45.261Z,26.29
2022-08-30T15:30:11.712Z,26.24
2022-08-30T15:32:41.087Z,26.13
2022-08-30T15:35:07.844Z,26.34
2022-08-30T15:37:34.764Z,26.40
2022-08-30T15:40:01.252Z,26.18
2022-08-30T15:42:31.220Z,26.35
2022-08-30T15:44:57.895Z,28.00
2022-08-30T15:47:25.128Z,27.06
2022-08-30T15:49:51.662Z,26.37
2022-08-30T15:52:22.827Z,26.43
2022-08-30T15:54:49.263Z,26.57
2022-08-30T15:57:16.386Z,26.94
2022-08-30T15:59:43.645Z,27.17
2022-08-30T16:02:10.409Z,27.39
2022-08-30T16:04:36.862Z,27.46
2022-08-30T16:07:03.302Z,27.30
2022-08-30T16:09:32.521Z,27.28
2022-08-30T16:11:59.297Z,27.45
2022-08-30T16:14:25.841Z,28.95
2022-08-30T16:16:52.315Z,28.75
2022-08-30T16:19:18.713Z,28.25
2022-08-30T16:21:45.249Z,28.20
2022-08-30T16:24:13.726Z,28.63
2022-08-30T16:26:40.518Z,28.77
2022-08-30T16:29:07.857Z,28.61
2022-08-30T16:31:35.385Z,28.30
2022-08-30T16:34:02.312Z,28.33
2022-08-30T16:36:30.348Z,28.23
2022-08-30T16:38:58.367Z,28.32
2022-08-30T16:41:24.911Z,28.22
2022-08-30T16:43:53.355Z,28.21
2022-08-30T16:46:22.902Z,29.07
2022-08-30T16:48:50.032Z,29.86
2022-08-30T16:51:16.457Z,28.67
2022-08-30T16:53:42.898Z,27.80
2022-08-30T16:56:09.361Z,27.73
2022-08-30T16:58:36.387Z,27.70
2022-08-30T17:01:03.140Z,28.19
2022-08-30T17:03:29.567Z,28.07
2022-08-30T17:05:57.420Z,27.60
2022-08-30T17:08:23.829Z,27.50
2022-08-30T17:10:50.216Z,27.01
2022-08-30T17:13:16.667Z,26.92
2022-08-30T17:15:43.084Z,26.72
2022-08-30T17:18:09.484Z,26.78
2022-08-30T17:20:36.228Z,28.08
2022-08-30T17:23:03.584Z,26.81
2022-08-30T17:25:33.935Z,26.30
2022-08-30T17:28:00.640Z,26.29
2022-08-30T17:30:27.086Z,26.23
2022-08-30T17:32:53.623Z,26.48
2022-08-30T17:35:20.095Z,26.51
2022-08-30T17:37:47.665Z,26.30
2022-08-30T17:40:17.564Z,26.42
2022-08-30T17:42:44.091Z,26.86
2022-08-30T17:45:10.494Z,26.86
2022-08-30T17:47:36.907Z,27.31
2022-08-30T17:50:03.664Z,27.18
2022-08-30T17:52:32.121Z,28.33
2022-08-30T17:54:59.914Z,27.00
2022-08-30T17:57:26.354Z,26.36
2022-08-30T17:59:52.738Z,26.13
2022-08-30T18:02:22.841Z,26.01
2022-08-30T18:04:56.389Z,25.87
2022-08-30T18:07:22.845Z,25.79
2022-08-30T18:09:50.063Z,25.84
2022-08-30T18:12:16.949Z,25.84
2022-08-30T18:14:44.603Z,25.75
2022-08-30T18:17:11.227Z,25.69
2022-08-30T18:19:45.905Z,25.42
2022-08-30T18:22:12.884Z,26.42
2022-08-30T18:24:39.416Z,26.91
2022-08-30T18:27:05.847Z,26.22
2022-08-30T18:29:32.283Z,25.72
2022-08-30T18:31:58.767Z,25.99
2022-08-30T18:34:25.168Z,25.97
2022-08-30T18:36:51.555Z,26.02
2022-08-30T18:39:18.010Z,26.20
2022-08-30T18:41:46.983Z,26.31
2022-08-30T18:44:27.420Z,26.36
2022-08-30T18:46:56.272Z,26.24
2022-08-30T18:49:23.329Z,26.55
2022-08-30T18:51:50.000Z,26.27
2022-08-30T18:54:16.663Z,26.27
2022-08-30T18:56:45.074Z,27.95
2022-08-30T18:59:11.588Z,26.83
2022-08-30T19:01:38.330Z,26.40
2022-08-30T19:04:04.871Z,26.17
2022-08-30T19:06:31.289Z,26.22
2022-08-30T19:08:57.748Z,26.16
2022-08-30T19:11:26.156Z,26.25
2022-08-30T19:13:52.547Z,26.37
2022-08-30T19:16:20.269Z,26.25
2022-08-30T19:18:46.950Z,26.19
2022-08-30T19:21:13.826Z,26.25
2022-08-30T19:23:40.658Z,26.21
2022-08-30T19:26:07.072Z,25.72
2022-08-30T19:28:33.459Z,27.63
2022-08-30T19:30:59.922Z,26.69
2022-08-30T19:33:26.308Z,26.13
2022-08-30T19:35:52.679Z,25.87
2022-08-30T19:38:19.208Z,25.80
2022-08-30T19:40:49.098Z,25.82
2022-08-30T19:43:19.114Z,25.80
2022-08-30T19:45:45.664Z,25.80
2022-08-30T19:48:12.222Z,25.80
2022-08-30T19:50:39.758Z,25.83
2022-08-30T19:53:07.326Z,25.94
2022-08-30T19:55:33.858Z,25.83
2022-08-30T19:58:00.265Z,25.96
2022-08-30T20:00:26.806Z,26.56
2022-08-30T20:02:57.647Z,27.05
2022-08-30T20:05:24.355Z,26.22
2022-08-30T20:07:51.201Z,25.71
2022-08-30T20:10:17.965Z,25.73
2022-08-30T20:12:44.985Z,25.53
2022-08-30T20:15:12.121Z,25.53
2022-08-30T20:18:02.547Z,25.55
2022-08-30T20:20:25.045Z,25.68
2022-08-30T20:22:54.090Z,25.67
2022-08-30T20:25:20.769Z,25.71
2022-08-30T20:27:47.299Z,25.67
2022-08-30T20:30:13.692Z,25.73
2022-08-30T20:32:40.062Z,25.42
2022-08-30T20:35:06.484Z,27.11
2022-08-30T20:37:32.850Z,26.40
2022-08-30T20:39:59.287Z,25.79
2022-08-30T20:42:25.778Z,25.50
2022-08-30T20:44:52.156Z,25.48
2022-08-30T20:47:18.885Z,25.42
2022-08-30T20:49:45.392Z,25.44
2022-08-30T20:52:11.775Z,25.50
2022-08-30T20:54:38.249Z,25.49
2022-08-30T20:57:06.251Z,25.46
2022-08-30T20:59:32.656Z,25.47
2022-08-30T21:01:59.158Z,25.47
2022-08-30T21:04:25.685Z,25.37
2022-08-30T21:06:52.066Z,25.08
2022-08-30T21:09:18.504Z,27.07
2022-08-30T21:11:46.006Z,26.28
2022-08-30T21:14:12.392Z,25.60
2022-08-30T21:16:38.886Z,25.18
2022-08-30T21:19:05.352Z,25.10
2022-08-30T21:21:31.742Z,25.11
2022-08-30T21:23:58.143Z,25.28
2022-08-30T21:26:24.606Z,25.14
2022-08-30T21:28:50.986Z,25.21
2022-08-30T21:31:17.435Z,25.15
2022-08-30T21:33:44.011Z,25.18
2022-08-30T21:36:10.404Z,25.25
2022-08-30T21:38:36.799Z,25.26
2022-08-30T21:41:03.399Z,25.10
2022-08-30T21:43:29.794Z,25.91
2022-08-30T21:45:56.282Z,26.41
2022-08-30T21:48:22.771Z,25.58
2022-08-30T21:50:49.151Z,25.23
2022-08-30T21:53:17.097Z,25.10
2022-08-30T21:55:43.941Z,25.00
2022-08-30T21:58:10.973Z,25.06
2022-08-30T22:00:37.383Z,25.08
2022-08-30T22:03:03.849Z,25.23
2022-08-30T22:05:30.386Z,25.21
2022-08-30T22:07:56.761Z,25.17
2022-08-30T22:10:23.277Z,25.21
2022-08-30T22:12:49.661Z,25.15
2022-08-30T22:15:16.377Z,25.23
2022-08-30T22:17:42.998Z,24.85
2022-08-30T22:20:09.384Z,26.74
2022-08-30T22:22:35.780Z,25.96
2022-08-30T22:25:02.292Z,25.45
2022-08-30T22:27:28.714Z,25.20
2022-08-30T22:29:55.143Z,25.06
2022-08-30T22:32:21.661Z,25.09
2022-08-30T22:34:48.043Z,25.13
2022-08-30T22:37:14.423Z,25.04
2022-08-30T22:39:40.934Z,25.30
2022-08-30T22:42:07.335Z,25.20
2022-08-30T22:44:33.838Z,25.16
2022-08-30T22:47:00.289Z,25.19
2022-08-30T22:49:26.686Z,25.22
2022-08-30T22:51:53.082Z,25.23
2022-08-30T22:54:19.551Z,25.51
2022-08-30T22:56:45.948Z,26.56
2022-08-30T22:59:12.380Z,25.64
2022-08-30T23:01:38.900Z,25.24
2022-08-30T23:04:05.341Z,25.20
2022-08-30T23:06:31.793Z,25.03
2022-08-30T23:08:58.237Z,25.09
2022-08-30T23:11:24.625Z,25.10
2022-08-30T23:13:51.016Z,25.13
2022-08-30T23:16:17.968Z,25.18
2022-08-30T23:18:44.671Z,25.16
2022-08-30T23:21:11.128Z,25.22
2022-08-30T23:23:37.567Z,25.33
2022-08-30T23:26:04.003Z,25.21
2022-08-30T23:28:30.426Z,24.83
2022-08-30T23:30:56.908Z,26.62
2022-08-30T23:33:23.312Z,25.92
2022-08-30T23:35:49.700Z,25.38
2022-08-30T23:38:16.141Z,25.33
2022-08-30T23:40:42.632Z,25.06
2022-08-30T23:43:09.041Z,25.05
2022-08-30T23:45:35.578Z,25.08
2022-08-30T23:48:02.041Z,25.10
2022-08-30T23:50:28.435Z,25.11
2022-08-30T23:52:54.913Z,25.15
2022-08-30T23:55:21.896Z,25.21
2022-08-30T23:57:48.301Z,25.15
